createdAt,value
2022-10-22T00:01:12.241Z,58.16
2022-10-22T00:03:41.539Z,58.39
2022-10-22T00:06:09.816Z,58.39
2022-10-22T00:08:38.390Z,58.30
2022-10-22T00:11:14.881Z,58.28
2022-10-22T00:13:42.988Z,58.43
2022-10-22T00:16:11.217Z,58.43
2022-10-22T00:18:39.781Z,58.33
2022-10-22T00:21:08.591Z,58.54
2022-10-22T00:23:36.661Z,58.48
2022-10-22T00:26:04.730Z,58.61
2022-10-22T00:28:32.799Z,58.51
2022-10-22T00:31:01.984Z,58.65
2022-10-22T00:33:30.583Z,58.72
2022-10-22T00:35:59.061Z,58.69
2022-10-22T00:38:27.133Z,58.79
2022-10-22T00:40:55.467Z,58.82
2022-10-22T00:43:23.584Z,58.84
2022-10-22T00:45:51.757Z,58.93
2022-10-22T00:48:25.971Z,59.15
2022-10-22T00:51:01.319Z,59.09
2022-10-22T00:53:39.712Z,58.97
2022-10-22T00:56:09.439Z,59.30
2022-10-22T00:58:44.065Z,59.26
2022-10-22T01:01:20.152Z,59.38
2022-10-22T01:03:49.432Z,59.50
2022-10-22T01:06:33.845Z,59.49
2022-10-22T01:09:23.246Z,59.53
2022-10-22T01:12:10.471Z,59.46
2022-10-22T01:14:49.188Z,59.62
2022-10-22T01:17:36.409Z,59.64
2022-10-22T01:20:07.859Z,59.67
2022-10-22T01:23:13.717Z,59.59
2022-10-22T01:25:56.327Z,59.69
2022-10-22T01:28:27.265Z,59.75
2022-10-22T01:30:58.310Z,59.71
2022-10-22T01:33:27.382Z,59.81
2022-10-22T01:35:55.576Z,59.81
2022-10-22T01:38:25.395Z,59.71
2022-10-22T01:40:54.995Z,59.74
2022-10-22T01:43:23.391Z,59.90
2022-10-22T01:45:56.668Z,59.99
2022-10-22T01:48:55.460Z,59.87
2022-10-22T01:51:29.880Z,60.01
2022-10-22T01:54:30.310Z,60.09
2022-10-22T01:57:26.439Z,60.15
2022-10-22T02:00:13.659Z,60.27
2022-10-22T02:02:53.917Z,60.30
2022-10-22T02:05:25.163Z,60.40
2022-10-22T02:08:00.098Z,60.49
2022-10-22T02:10:31.106Z,60.45
2022-10-22T02:13:01.561Z,60.59
2022-10-22T02:15:33.523Z,60.43
2022-10-22T02:18:03.438Z,60.69
2022-10-22T02:20:37.039Z,60.74
2022-10-22T02:23:06.033Z,60.71
2022-10-22T02:25:40.963Z,60.76
2022-10-22T02:28:19.992Z,60.88
2022-10-22T02:30:55.025Z,61.01
2022-10-22T02:33:33.013Z,60.96
2022-10-22T02:36:03.052Z,61.16
2022-10-22T02:38:32.037Z,61.33
2022-10-22T02:41:00.112Z,61.19
2022-10-22T02:43:29.409Z,61.34
2022-10-22T02:45:57.791Z,61.40
2022-10-22T02:48:26.050Z,61.37
2022-10-22T02:50:54.036Z,61.58
2022-10-22T02:53:22.010Z,61.67
2022-10-22T02:55:50.286Z,61.50
2022-10-22T02:58:18.249Z,61.55
2022-10-22T03:00:46.470Z,61.66
2022-10-22T03:03:14.597Z,61.77
2022-10-22T03:05:42.677Z,62.05
2022-10-22T03:08:10.702Z,61.94
2022-10-22T03:10:38.812Z,62.05
2022-10-22T03:13:06.882Z,62.00
2022-10-22T03:15:34.957Z,61.88
2022-10-22T03:18:03.025Z,62.00
2022-10-22T03:20:31.300Z,62.05
2022-10-22T03:22:59.372Z,62.01
2022-10-22T03:25:28.671Z,61.85
2022-10-22T03:28:03.297Z,62.06
2022-10-22T03:30:31.675Z,62.03
2022-10-22T03:32:59.644Z,62.15
2022-10-22T03:35:27.953Z,62.14
2022-10-22T03:37:55.992Z,62.38
2022-10-22T03:40:24.062Z,62.35
2022-10-22T03:42:53.567Z,62.38
2022-10-22T03:45:21.640Z,62.49
2022-10-22T03:47:49.710Z,62.36
2022-10-22T03:50:17.886Z,62.62
2022-10-22T03:52:45.956Z,62.64
2022-10-22T03:55:13.924Z,62.67
2022-10-22T03:57:42.125Z,62.64
2022-10-22T04:00:11.319Z,62.67
2022-10-22T04:02:39.367Z,62.62
2022-10-22T04:05:08.470Z,62.77
2022-10-22T04:07:36.846Z,62.73
2022-10-22T04:10:05.735Z,62.63
2022-10-22T04:12:33.803Z,63.08
2022-10-22T04:15:01.875Z,62.88
2022-10-22T04:17:35.073Z,63.08
2022-10-22T04:20:04.469Z,62.90
2022-10-22T04:22:36.506Z,63.01
2022-10-22T04:25:05.444Z,63.03
2022-10-22T04:27:34.654Z,62.91
2022-10-22T04:30:04.346Z,63.06
2022-10-22T04:32:32.401Z,63.27
2022-10-22T04:35:00.370Z,63.18
2022-10-22T04:37:28.544Z,63.26
2022-10-22T04:39:58.177Z,63.31
2022-10-22T04:42:26.530Z,63.25
2022-10-22T04:44:54.499Z,63.38
2022-10-22T04:47:22.468Z,63.70
2022-10-22T04:49:50.539Z,63.32
2022-10-22T04:52:18.508Z,63.51
2022-10-22T04:54:47.123Z,63.31
2022-10-22T04:57:15.119Z,63.70
2022-10-22T04:59:43.102Z,63.67
2022-10-22T05:02:11.100Z,63.86
2022-10-22T05:04:39.084Z,63.84
2022-10-22T05:07:07.143Z,63.77
2022-10-22T05:09:35.416Z,64.06
2022-10-22T05:12:03.590Z,64.06
2022-10-22T05:14:31.661Z,64.17
2022-10-22T05:17:00.040Z,64.05
2022-10-22T05:19:31.059Z,64.30
2022-10-22T05:22:01.415Z,64.39
2022-10-22T05:24:31.116Z,64.46
2022-10-22T05:27:00.314Z,64.70
2022-10-22T05:29:28.486Z,64.75
2022-10-22T05:31:56.557Z,64.82
2022-10-22T05:34:24.628Z,64.98
2022-10-22T05:36:52.597Z,65.10
2022-10-22T05:39:20.671Z,65.09
2022-10-22T05:41:48.740Z,65.29
2022-10-22T05:44:16.709Z,65.21
2022-10-22T05:46:44.781Z,65.08
2022-10-22T05:49:15.187Z,64.87
2022-10-22T05:51:43.584Z,65.02
2022-10-22T05:54:20.464Z,64.90
2022-10-22T05:56:48.762Z,64.87
2022-10-22T05:59:16.920Z,64.96
2022-10-22T06:01:45.062Z,64.93
2022-10-22T06:04:13.554Z,64.99
2022-10-22T06:06:45.191Z,65.19
2022-10-22T06:09:20.390Z,65.21
2022-10-22T06:11:49.355Z,65.13
2022-10-22T06:14:18.345Z,65.23
2022-10-22T06:16:47.237Z,65.21
2022-10-22T06:19:18.072Z,65.28
2022-10-22T06:21:46.956Z,65.36
2022-10-22T06:24:15.240Z,65.45
2022-10-22T06:26:43.309Z,65.52
2022-10-22T06:29:11.588Z,65.65
2022-10-22T06:31:39.657Z,65.42
2022-10-22T06:34:11.745Z,65.67
2022-10-22T06:36:42.981Z,65.61
2022-10-22T06:39:16.570Z,65.82
2022-10-22T06:41:44.742Z,65.66
2022-10-22T06:44:16.092Z,65.64
2022-10-22T06:46:44.263Z,65.41
2022-10-22T06:49:14.692Z,65.62
2022-10-22T06:51:42.967Z,65.63
2022-10-22T06:54:11.276Z,65.80
2022-10-22T06:56:39.313Z,65.77
2022-10-22T06:59:07.386Z,65.70
2022-10-22T07:01:36.127Z,65.60
2022-10-22T07:04:05.366Z,65.46
2022-10-22T07:06:33.351Z,65.40
2022-10-22T07:09:01.890Z,65.56
2022-10-22T07:11:38.903Z,65.27
2022-10-22T07:14:07.896Z,65.20
2022-10-22T07:16:36.479Z,65.28
2022-10-22T07:19:05.267Z,64.98
2022-10-22T07:21:33.250Z,64.83
2022-10-22T07:24:01.410Z,64.78
2022-10-22T07:26:32.752Z,64.59
2022-10-22T07:29:01.649Z,64.57
2022-10-22T07:31:29.926Z,64.48
2022-10-22T07:33:58.345Z,64.54
2022-10-22T07:36:26.477Z,64.56
2022-10-22T07:38:57.827Z,64.55
2022-10-22T07:41:28.155Z,64.51
2022-10-22T07:43:57.438Z,64.49
2022-10-22T07:46:26.516Z,64.38
2022-10-22T07:48:54.617Z,64.31
2022-10-22T07:51:23.302Z,64.22
2022-10-22T07:53:51.476Z,64.25
2022-10-22T07:56:19.551Z,64.26
2022-10-22T07:58:47.517Z,64.20
2022-10-22T08:01:15.642Z,63.78
2022-10-22T08:03:44.785Z,63.99
2022-10-22T08:06:14.868Z,64.03
2022-10-22T08:08:43.940Z,63.98
2022-10-22T08:11:12.617Z,64.18
2022-10-22T08:13:45.138Z,64.12
2022-10-22T08:16:14.672Z,64.12
2022-10-22T08:18:42.943Z,64.07
2022-10-22T08:21:12.967Z,63.93
2022-10-22T08:23:41.234Z,64.00
2022-10-22T08:26:09.911Z,64.09
2022-10-22T08:28:38.400Z,64.10
2022-10-22T08:31:08.431Z,64.12
2022-10-22T08:33:38.952Z,64.10
2022-10-22T08:36:08.259Z,63.97
2022-10-22T08:38:36.624Z,64.17
2022-10-22T08:41:13.347Z,64.25
2022-10-22T08:43:56.524Z,64.17
2022-10-22T08:46:30.333Z,64.10
2022-10-22T08:49:02.044Z,64.02
2022-10-22T08:51:34.742Z,64.23
2022-10-22T08:54:05.809Z,64.27
2022-10-22T08:56:37.365Z,64.35
2022-10-22T08:59:24.989Z,64.14
2022-10-22T09:01:54.488Z,63.79
2022-10-22T09:04:33.317Z,63.97
2022-10-22T09:07:01.302Z,63.84
2022-10-22T09:09:39.791Z,63.73
2022-10-22T09:12:10.435Z,63.85
2022-10-22T09:14:38.711Z,64.04
2022-10-22T09:17:38.724Z,63.91
2022-10-22T09:20:27.180Z,63.73
2022-10-22T09:23:01.503Z,64.03
2022-10-22T09:25:33.838Z,64.03
2022-10-22T09:28:02.965Z,64.11
2022-10-22T09:30:36.468Z,64.03
2022-10-22T09:33:07.302Z,63.74
2022-10-22T09:35:45.605Z,63.61
2022-10-22T09:38:16.043Z,63.72
2022-10-22T09:40:51.277Z,63.26
2022-10-22T09:43:20.271Z,63.33
2022-10-22T09:45:56.124Z,62.88
2022-10-22T09:48:32.289Z,62.89
2022-10-22T09:51:18.790Z,63.42
2022-10-22T09:53:56.180Z,63.28
2022-10-22T09:56:35.618Z,62.59
2022-10-22T09:59:04.712Z,62.87
2022-10-22T10:01:35.963Z,62.84
2022-10-22T10:04:09.564Z,62.86
2022-10-22T10:06:41.206Z,62.73
2022-10-22T10:09:17.449Z,62.81
2022-10-22T10:12:05.107Z,62.88
2022-10-22T10:14:45.363Z,62.69
2022-10-22T10:17:19.354Z,62.76
2022-10-22T10:20:18.472Z,62.61
2022-10-22T10:23:03.132Z,62.72
2022-10-22T10:26:06.329Z,62.75
2022-10-22T10:28:48.530Z,63.04
2022-10-22T10:31:40.259Z,63.02
2022-10-22T10:34:45.807Z,62.66
2022-10-22T10:37:25.368Z,62.91
2022-10-22T10:40:08.162Z,63.11
2022-10-22T10:43:08.593Z,62.96
2022-10-22T10:46:04.274Z,63.14
2022-10-22T10:48:58.497Z,63.22
2022-10-22T10:51:51.427Z,63.09
2022-10-22T10:54:35.651Z,63.02
2022-10-22T10:57:19.747Z,62.98
2022-10-22T11:00:17.002Z,62.87
2022-10-22T11:03:03.916Z,63.11
2022-10-22T11:06:04.043Z,63.11
2022-10-22T11:08:36.968Z,63.13
2022-10-22T11:11:11.884Z,62.96
2022-10-22T11:13:49.654Z,63.02
2022-10-22T11:16:23.664Z,62.93
2022-10-22T11:19:22.667Z,63.04
2022-10-22T11:22:06.400Z,63.05
2022-10-22T11:24:43.584Z,63.29
2022-10-22T11:27:47.039Z,63.20
2022-10-22T11:30:20.588Z,63.05
2022-10-22T11:32:58.794Z,63.14
2022-10-22T11:35:31.985Z,63.29
2022-10-22T11:38:02.104Z,63.26
2022-10-22T11:40:30.175Z,63.34
2022-10-22T11:43:04.393Z,63.41
2022-10-22T11:45:40.053Z,63.29
2022-10-22T11:48:11.183Z,63.34
2022-10-22T11:50:42.943Z,63.23
2022-10-22T11:53:13.606Z,63.33
2022-10-22T11:55:51.705Z,63.31
2022-10-22T11:58:30.809Z,63.38
2022-10-22T12:01:01.645Z,63.39
2022-10-22T12:03:32.384Z,63.53
2022-10-22T12:06:12.431Z,63.51
2022-10-22T12:08:50.596Z,63.67
2022-10-22T12:11:36.940Z,63.85
2022-10-22T12:14:20.043Z,64.10
2022-10-22T12:17:10.463Z,64.17
2022-10-22T12:19:40.371Z,64.59
2022-10-22T12:22:17.147Z,64.80
2022-10-22T12:24:49.621Z,65.21
2022-10-22T12:27:34.282Z,65.15
2022-10-22T12:30:18.429Z,65.27
2022-10-22T12:32:46.502Z,65.36
2022-10-22T12:35:26.861Z,65.48
2022-10-22T12:37:57.696Z,65.68
2022-10-22T12:40:27.304Z,65.73
2022-10-22T12:43:01.808Z,65.96
2022-10-22T12:45:33.278Z,66.05
2022-10-22T12:48:22.034Z,66.15
2022-10-22T12:50:53.490Z,66.12
2022-10-22T12:53:45.620Z,66.68
2022-10-22T12:56:16.558Z,66.57
2022-10-22T12:58:52.984Z,66.79
2022-10-22T13:01:21.408Z,66.95
2022-10-22T13:04:19.660Z,67.11
2022-10-22T13:06:50.931Z,66.94
2022-10-22T13:09:27.052Z,67.18
2022-10-22T13:12:01.817Z,67.49
2022-10-22T13:14:33.064Z,67.91
2022-10-22T13:17:36.361Z,68.27
2022-10-22T13:20:16.110Z,68.44
2022-10-22T13:23:00.437Z,68.64
2022-10-22T13:25:30.554Z,68.67
2022-10-22T13:28:13.395Z,68.91
2022-10-22T13:30:57.031Z,69.30
2022-10-22T13:33:29.738Z,69.61
2022-10-22T13:35:58.191Z,69.69
2022-10-22T13:38:28.106Z,69.94
2022-10-22T13:40:57.099Z,70.25
2022-10-22T13:43:25.862Z,70.24
2022-10-22T13:45:57.953Z,70.47
2022-10-22T13:48:28.378Z,70.70
2022-10-22T13:50:56.658Z,70.93
2022-10-22T13:53:27.900Z,71.12
2022-10-22T13:55:55.877Z,71.25
2022-10-22T13:58:25.293Z,71.53
2022-10-22T14:00:59.182Z,71.41
2022-10-22T14:03:32.165Z,71.69
2022-10-22T14:06:01.057Z,71.63
2022-10-22T14:08:29.336Z,72.07
2022-10-22T14:10:57.611Z,72.07
2022-10-22T14:13:26.912Z,72.26
2022-10-22T14:15:55.186Z,72.37
2022-10-22T14:18:31.690Z,72.25
2022-10-22T14:21:05.257Z,72.42
2022-10-22T14:23:35.559Z,72.87
2022-10-22T14:26:04.815Z,72.95
2022-10-22T14:28:40.951Z,73.01
2022-10-22T14:31:15.450Z,73.03
2022-10-22T14:33:44.043Z,73.10
2022-10-22T14:36:14.680Z,72.88
2022-10-22T14:38:46.231Z,73.40
2022-10-22T14:41:21.161Z,73.26
2022-10-22T14:43:50.013Z,73.46
2022-10-22T14:46:19.234Z,73.37
2022-10-22T14:48:47.729Z,73.31
2022-10-22T14:51:18.770Z,73.37
2022-10-22T14:53:47.763Z,73.53
2022-10-22T14:56:18.702Z,73.54
2022-10-22T14:58:46.874Z,73.58
2022-10-22T15:01:15.177Z,73.68
2022-10-22T15:03:43.323Z,73.82
2022-10-22T15:06:11.805Z,73.63
2022-10-22T15:08:39.908Z,73.95
2022-10-22T15:11:11.326Z,73.91
2022-10-22T15:13:41.549Z,73.99
2022-10-22T15:16:11.769Z,74.13
2022-10-22T15:18:39.843Z,74.06
2022-10-22T15:21:17.948Z,74.16
2022-10-22T15:23:46.024Z,74.27
2022-10-22T15:26:14.705Z,74.26
2022-10-22T15:28:43.338Z,74.55
2022-10-22T15:31:14.427Z,74.43
2022-10-22T15:33:43.848Z,74.56
2022-10-22T15:36:14.875Z,74.41
2022-10-22T15:38:43.317Z,74.90
2022-10-22T15:41:13.593Z,74.81
2022-10-22T15:43:42.470Z,74.90
2022-10-22T15:46:14.449Z,75.02
2022-10-22T15:48:43.320Z,75.36
2022-10-22T15:51:17.024Z,75.09
2022-10-22T15:53:52.571Z,75.37
2022-10-22T15:56:20.867Z,75.27
2022-10-22T15:58:54.243Z,75.49
2022-10-22T16:01:22.779Z,75.63
2022-10-22T16:04:00.379Z,75.71
2022-10-22T16:06:36.479Z,75.82
2022-10-22T16:09:08.468Z,76.00
2022-10-22T16:11:37.967Z,76.10
2022-10-22T16:14:06.637Z,75.94
2022-10-22T16:16:36.857Z,75.98
2022-10-22T16:19:04.939Z,76.00
2022-10-22T16:21:32.997Z,76.15
2022-10-22T16:24:06.133Z,76.15
2022-10-22T16:26:35.898Z,76.39
2022-10-22T16:29:05.507Z,76.71
2022-10-22T16:31:33.580Z,76.53
2022-10-22T16:34:01.646Z,76.60
2022-10-22T16:36:29.721Z,76.69
2022-10-22T16:38:57.715Z,77.00
2022-10-22T16:41:33.949Z,77.11
2022-10-22T16:44:05.198Z,77.10
2022-10-22T16:46:34.323Z,77.12
2022-10-22T16:49:02.569Z,77.07
2022-10-22T16:51:30.640Z,77.19
2022-10-22T16:53:58.916Z,77.44
2022-10-22T16:56:27.470Z,77.46
2022-10-22T16:58:57.721Z,77.53
2022-10-22T17:01:29.173Z,77.45
2022-10-22T17:04:00.491Z,77.71
2022-10-22T17:06:29.194Z,77.92
2022-10-22T17:08:57.356Z,77.99
2022-10-22T17:11:25.654Z,77.98
2022-10-22T17:13:54.835Z,77.90
2022-10-22T17:16:24.776Z,78.10
2022-10-22T17:18:56.321Z,78.19
2022-10-22T17:21:25.121Z,78.55
2022-10-22T17:23:57.394Z,78.66
2022-10-22T17:26:27.113Z,78.77
2022-10-22T17:28:55.672Z,78.75
2022-10-22T17:31:29.476Z,78.91
2022-10-22T17:33:57.959Z,79.06
2022-10-22T17:36:30.444Z,79.15
2022-10-22T17:39:05.675Z,79.08
2022-10-22T17:41:36.917Z,78.77
2022-10-22T17:44:09.294Z,78.90
2022-10-22T17:46:37.979Z,79.07
2022-10-22T17:49:13.306Z,79.16
2022-10-22T17:51:41.490Z,79.20
2022-10-22T17:54:10.199Z,79.23
2022-10-22T17:56:40.394Z,79.18
2022-10-22T17:59:12.875Z,79.21
2022-10-22T18:01:45.777Z,79.38
2022-10-22T18:04:17.005Z,79.32
2022-10-22T18:06:47.226Z,79.47
2022-10-22T18:09:18.657Z,79.33
2022-10-22T18:11:49.617Z,79.53
2022-10-22T18:14:19.631Z,80.02
2022-10-22T18:16:48.213Z,79.74
2022-10-22T18:19:19.870Z,80.03
2022-10-22T18:21:48.145Z,79.71
2022-10-22T18:24:17.285Z,79.93
2022-10-22T18:26:45.516Z,80.17
2022-10-22T18:29:18.605Z,80.32
2022-10-22T18:31:47.983Z,80.36
2022-10-22T18:34:18.891Z,80.46
2022-10-22T18:36:49.753Z,80.40
2022-10-22T18:39:18.335Z,80.89
2022-10-22T18:41:48.996Z,80.78
2022-10-22T18:44:18.174Z,81.01
2022-10-22T18:46:46.266Z,81.09
2022-10-22T18:49:21.096Z,81.17
2022-10-22T18:51:52.837Z,81.15
2022-10-22T18:54:23.668Z,81.42
2022-10-22T18:57:02.577Z,81.26
2022-10-22T18:59:31.610Z,81.54
2022-10-22T19:01:59.876Z,81.68
2022-10-22T19:04:33.766Z,82.10
2022-10-22T19:07:01.876Z,81.67
2022-10-22T19:09:30.655Z,81.89
2022-10-22T19:12:00.261Z,81.36
2022-10-22T19:14:28.433Z,81.81
2022-10-22T19:16:56.811Z,81.82
2022-10-22T19:19:24.882Z,81.80
2022-10-22T19:21:53.543Z,81.95
2022-10-22T19:24:21.643Z,81.56
2022-10-22T19:26:50.331Z,81.66
2022-10-22T19:29:20.342Z,81.76
2022-10-22T19:31:51.014Z,82.21
2022-10-22T19:34:20.784Z,82.31
2022-10-22T19:36:51.811Z,81.84
2022-10-22T19:39:20.491Z,82.07
2022-10-22T19:41:48.686Z,82.11
2022-10-22T19:44:16.859Z,82.76
2022-10-22T19:46:45.036Z,82.74
2022-10-22T19:49:16.542Z,82.83
2022-10-22T19:51:47.115Z,82.87
2022-10-22T19:54:18.678Z,83.01
2022-10-22T19:56:47.972Z,83.39
2022-10-22T19:59:16.949Z,82.96
2022-10-22T20:01:45.036Z,82.68
2022-10-22T20:04:16.073Z,82.93
2022-10-22T20:06:44.459Z,83.36
2022-10-22T20:09:13.373Z,83.18
2022-10-22T20:11:41.617Z,83.39
2022-10-22T20:14:09.689Z,83.72
2022-10-22T20:16:38.485Z,83.98
2022-10-22T20:19:07.825Z,83.43
2022-10-22T20:21:35.848Z,83.64
2022-10-22T20:24:04.594Z,83.89
2022-10-22T20:26:32.710Z,83.52
2022-10-22T20:29:00.983Z,83.79
2022-10-22T20:31:33.069Z,83.96
2022-10-22T20:34:02.045Z,84.34
2022-10-22T20:36:31.894Z,84.16
2022-10-22T20:39:03.193Z,84.02
2022-10-22T20:41:31.274Z,83.87
2022-10-22T20:43:59.243Z,84.57
2022-10-22T20:46:30.990Z,83.98
2022-10-22T20:49:00.300Z,83.92
2022-10-22T20:51:28.991Z,84.37
2022-10-22T20:53:57.433Z,84.12
2022-10-22T20:56:26.767Z,84.23
2022-10-22T20:59:04.691Z,84.18
2022-10-22T21:01:34.381Z,84.62
2022-10-22T21:04:02.461Z,84.48
2022-10-22T21:06:30.623Z,84.11
2022-10-22T21:08:58.759Z,84.10
2022-10-22T21:11:26.972Z,84.31
2022-10-22T21:13:54.939Z,84.44
2022-10-22T21:16:23.320Z,84.50
2022-10-22T21:18:51.697Z,84.29
2022-10-22T21:21:20.177Z,84.41
2022-10-22T21:23:50.314Z,84.37
2022-10-22T21:26:20.108Z,84.30
2022-10-22T21:28:48.389Z,84.57
2022-10-22T21:31:26.194Z,84.71
2022-10-22T21:33:54.462Z,84.85
2022-10-22T21:36:23.719Z,84.46
2022-10-22T21:38:52.672Z,84.69
2022-10-22T21:41:22.977Z,84.57
2022-10-22T21:43:51.879Z,84.41
2022-10-22T21:46:22.292Z,84.32
2022-10-22T21:49:01.323Z,84.55
2022-10-22T21:51:35.639Z,84.56
2022-10-22T21:54:03.830Z,84.55
2022-10-22T21:56:34.855Z,84.24
2022-10-22T21:59:04.869Z,84.14
2022-10-22T22:01:33.975Z,84.10
2022-10-22T22:04:02.752Z,84.29
2022-10-22T22:06:33.511Z,84.13
2022-10-22T22:09:04.158Z,84.37
2022-10-22T22:11:32.808Z,84.40
2022-10-22T22:14:01.080Z,84.65
2022-10-22T22:16:32.226Z,84.92
2022-10-22T22:21:32.256Z,84.73
2022-10-22T22:24:00.329Z,84.82
2022-10-22T22:26:30.197Z,85.05
2022-10-22T22:28:59.965Z,85.03
2022-10-22T22:31:37.652Z,85.26
2022-10-22T22:34:12.992Z,85.17
2022-10-22T22:36:43.622Z,84.70
2022-10-22T22:39:14.486Z,84.66
2022-10-22T22:41:43.656Z,85.08
2022-10-22T22:44:12.849Z,85.42
2022-10-22T22:46:41.232Z,85.17
2022-10-22T22:49:09.817Z,85.34
2022-10-22T22:51:37.887Z,85.34
2022-10-22T22:54:05.863Z,85.43
2022-10-22T22:56:34.814Z,85.58
2022-10-22T22:59:04.148Z,85.47
2022-10-22T23:01:37.957Z,85.21
2022-10-22T23:04:16.488Z,85.40
2022-10-22T23:06:45.452Z,85.46
2022-10-22T23:09:15.452Z,85.58
2022-10-22T23:11:45.293Z,85.76
2022-10-22T23:14:15.719Z,85.83
2022-10-22T23:16:49.423Z,85.63
2022-10-22T23:19:20.261Z,85.69
2022-10-22T23:21:54.268Z,85.42
2022-10-22T23:24:28.970Z,85.31
2022-10-22T23:27:01.139Z,85.24
2022-10-22T23:29:31.900Z,85.23
2022-10-22T23:32:01.712Z,85.80
2022-10-22T23:34:31.611Z,85.86
2022-10-22T23:37:00.339Z,85.56
2022-10-22T23:39:29.256Z,85.82
2022-10-22T23:41:58.072Z,85.69
2022-10-22T23:44:26.472Z,85.80
2022-10-22T23:46:55.363Z,85.62
2022-10-22T23:49:23.435Z,85.61
2022-10-22T23:51:51.402Z,85.72
2022-10-22T23:54:19.470Z,85.59
2022-10-22T23:56:47.544Z,85.55
2022-10-22T23:59:16.284Z,85.45
